sensor_id;sensor_type;location;lat;lon;timestamp;P1;durP1;ratioP1;P2;durP2;ratioP2
50126;SDS011;36024;47.974;16.398;2023-05-10T00:00:37;2.80;;;2.60;;
50126;SDS011;36024;47.974;16.398;2023-05-10T00:03:04;3.90;;;3.00;;
50126;SDS011;36024;47.974;16.398;2023-05-10T00:05:32;2.70;;;2.50;;
50126;SDS011;36024;47.974;16.398;2023-05-10T00:07:58;2.77;;;2.57;;
50126;SDS011;36024;47.974;16.398;2023-05-10T00:10:25;3.27;;;3.00;;
50126;SDS011;36024;47.974;16.398;2023-05-10T00:12:52;3.20;;;3.00;;
50126;SDS011;36024;47.974;16.398;2023-05-10T00:15:19;3.30;;;3.00;;
50126;SDS011;36024;47.974;16.398;2023-05-10T00:17:46;3.10;;;2.80;;
50126;SDS011;36024;47.974;16.398;2023-05-10T00:20:13;3.00;;;2.70;;
50126;SDS011;36024;47.974;16.398;2023-05-10T00:22:40;3.17;;;2.73;;
50126;SDS011;36024;47.974;16.398;2023-05-10T00:25:06;3.23;;;2.93;;
50126;SDS011;36024;47.974;16.398;2023-05-10T00:27:34;2.80;;;2.60;;
50126;SDS011;36024;47.974;16.398;2023-05-10T00:30:01;3.27;;;2.60;;
50126;SDS011;36024;47.974;16.398;2023-05-10T00:32:28;2.83;;;2.63;;
50126;SDS011;36024;47.974;16.398;2023-05-10T00:34:54;2.83;;;2.63;;
50126;SDS011;36024;47.974;16.398;2023-05-10T00:37:21;3.27;;;2.80;;
50126;SDS011;36024;47.974;16.398;2023-05-10T00:39:48;3.93;;;2.70;;
50126;SDS011;36024;47.974;16.398;2023-05-10T00:42:15;3.00;;;2.70;;
50126;SDS011;36024;47.974;16.398;2023-05-10T00:44:42;3.60;;;2.70;;
50126;SDS011;36024;47.974;16.398;2023-05-10T00:47:08;3.83;;;2.37;;
50126;SDS011;36024;47.974;16.398;2023-05-10T00:49:35;3.37;;;2.83;;
50126;SDS011;36024;47.974;16.398;2023-05-10T00:52:03;5.03;;;3.10;;
50126;SDS011;36024;47.974;16.398;2023-05-10T00:54:30;4.03;;;3.00;;
50126;SDS011;36024;47.974;16.398;2023-05-10T00:56:57;5.47;;;3.27;;
50126;SDS011;36024;47.974;16.398;2023-05-10T00:59:23;3.43;;;2.80;;
50126;SDS011;36024;47.974;16.398;2023-05-10T01:01:50;3.20;;;2.67;;
50126;SDS011;36024;47.974;16.398;2023-05-10T01:04:18;2.63;;;2.43;;
50126;SDS011;36024;47.974;16.398;2023-05-10T01:06:46;3.50;;;2.90;;
50126;SDS011;36024;47.974;16.398;2023-05-10T01:09:13;3.30;;;2.87;;
50126;SDS011;36024;47.974;16.398;2023-05-10T01:11:40;4.63;;;3.20;;
50126;SDS011;36024;47.974;16.398;2023-05-10T01:14:06;3.27;;;2.93;;
50126;SDS011;36024;47.974;16.398;2023-05-10T01:16:36;3.60;;;3.27;;
50126;SDS011;36024;47.974;16.398;2023-05-10T01:19:05;3.43;;;2.90;;
50126;SDS011;36024;47.974;16.398;2023-05-10T01:21:43;3.50;;;3.20;;
50126;SDS011;36024;47.974;16.398;2023-05-10T01:32:21;3.23;;;2.87;;
50126;SDS011;36024;47.974;16.398;2023-05-10T01:34:54;3.73;;;3.33;;
50126;SDS011;36024;47.974;16.398;2023-05-10T01:37:33;3.07;;;2.87;;
50126;SDS011;36024;47.974;16.398;2023-05-10T01:40:26;2.83;;;2.63;;
50126;SDS011;36024;47.974;16.398;2023-05-10T01:43:08;3.63;;;3.07;;
50126;SDS011;36024;47.974;16.398;2023-05-10T01:48:21;4.93;;;3.03;;
50126;SDS011;36024;47.974;16.398;2023-05-10T01:50:48;3.17;;;2.87;;
50126;SDS011;36024;47.974;16.398;2023-05-10T01:53:17;3.40;;;3.10;;
50126;SDS011;36024;47.974;16.398;2023-05-10T01:55:46;3.40;;;3.10;;
50126;SDS011;36024;47.974;16.398;2023-05-10T01:58:17;3.20;;;2.70;;
50126;SDS011;36024;47.974;16.398;2023-05-10T02:00:47;4.10;;;3.00;;
50126;SDS011;36024;47.974;16.398;2023-05-10T02:03:18;4.20;;;2.80;;
50126;SDS011;36024;47.974;16.398;2023-05-10T02:05:48;6.10;;;2.97;;
50126;SDS011;36024;47.974;16.398;2023-05-10T02:08:15;5.60;;;3.23;;
50126;SDS011;36024;47.974;16.398;2023-05-10T02:10:43;3.20;;;2.90;;
50126;SDS011;36024;47.974;16.398;2023-05-10T02:13:11;3.83;;;3.10;;
50126;SDS011;36024;47.974;16.398;2023-05-10T02:15:39;4.40;;;2.70;;
50126;SDS011;36024;47.974;16.398;2023-05-10T02:18:07;3.23;;;2.97;;
50126;SDS011;36024;47.974;16.398;2023-05-10T02:20:35;3.30;;;3.00;;
50126;SDS011;36024;47.974;16.398;2023-05-10T02:23:03;5.30;;;3.13;;
50126;SDS011;36024;47.974;16.398;2023-05-10T02:25:31;3.50;;;3.10;;
50126;SDS011;36024;47.974;16.398;2023-05-10T02:27:59;3.33;;;3.03;;
50126;SDS011;36024;47.974;16.398;2023-05-10T02:30:28;4.13;;;3.30;;
50126;SDS011;36024;47.974;16.398;2023-05-10T02:32:57;3.23;;;2.93;;
50126;SDS011;36024;47.974;16.398;2023-05-10T02:35:25;3.50;;;3.00;;
50126;SDS011;36024;47.974;16.398;2023-05-10T02:37:52;4.13;;;3.17;;
50126;SDS011;36024;47.974;16.398;2023-05-10T02:40:20;3.37;;;3.07;;
50126;SDS011;36024;47.974;16.398;2023-05-10T02:42:48;3.50;;;3.20;;
50126;SDS011;36024;47.974;16.398;2023-05-10T02:45:18;3.33;;;3.03;;
50126;SDS011;36024;47.974;16.398;2023-05-10T02:47:46;3.60;;;3.30;;
50126;SDS011;36024;47.974;16.398;2023-05-10T02:50:13;3.33;;;3.03;;
50126;SDS011;36024;47.974;16.398;2023-05-10T02:52:49;3.33;;;3.03;;
50126;SDS011;36024;47.974;16.398;2023-05-10T02:55:19;3.40;;;3.10;;
50126;SDS011;36024;47.974;16.398;2023-05-10T02:57:51;3.60;;;3.30;;
50126;SDS011;36024;47.974;16.398;2023-05-10T03:00:20;4.93;;;3.17;;
50126;SDS011;36024;47.974;16.398;2023-05-10T03:02:47;3.50;;;3.20;;
50126;SDS011;36024;47.974;16.398;2023-05-10T03:05:14;5.37;;;3.57;;
50126;SDS011;36024;47.974;16.398;2023-05-10T03:07:40;4.63;;;3.60;;
50126;SDS011;36024;47.974;16.398;2023-05-10T03:10:07;3.90;;;3.20;;
50126;SDS011;36024;47.974;16.398;2023-05-10T03:18:43;3.73;;;3.37;;
50126;SDS011;36024;47.974;16.398;2023-05-10T03:21:18;3.70;;;3.40;;
50126;SDS011;36024;47.974;16.398;2023-05-10T03:23:50;5.23;;;3.60;;
50126;SDS011;36024;47.974;16.398;2023-05-10T03:26:20;4.90;;;3.40;;
50126;SDS011;36024;47.974;16.398;2023-05-10T03:28:58;4.57;;;3.57;;
50126;SDS011;36024;47.974;16.398;2023-05-10T03:31:25;4.70;;;3.53;;
50126;SDS011;36024;47.974;16.398;2023-05-10T03:33:52;3.80;;;3.50;;
50126;SDS011;36024;47.974;16.398;2023-05-10T03:36:23;4.17;;;3.70;;
50126;SDS011;36024;47.974;16.398;2023-05-10T03:38:50;4.60;;;3.47;;
50126;SDS011;36024;47.974;16.398;2023-05-10T03:41:17;4.67;;;3.93;;
50126;SDS011;36024;47.974;16.398;2023-05-10T03:43:44;4.07;;;3.67;;
50126;SDS011;36024;47.974;16.398;2023-05-10T03:46:10;5.27;;;4.10;;
50126;SDS011;36024;47.974;16.398;2023-05-10T03:48:38;4.13;;;3.60;;
50126;SDS011;36024;47.974;16.398;2023-05-10T03:51:05;4.47;;;3.90;;
50126;SDS011;36024;47.974;16.398;2023-05-10T03:53:32;5.20;;;3.90;;
50126;SDS011;36024;47.974;16.398;2023-05-10T03:55:59;4.57;;;3.50;;
50126;SDS011;36024;47.974;16.398;2023-05-10T03:58:26;4.00;;;3.70;;
50126;SDS011;36024;47.974;16.398;2023-05-10T04:00:53;4.13;;;3.80;;
50126;SDS011;36024;47.974;16.398;2023-05-10T04:03:19;4.53;;;4.13;;
50126;SDS011;36024;47.974;16.398;2023-05-10T04:05:46;4.70;;;3.87;;
50126;SDS011;36024;47.974;16.398;2023-05-10T04:08:13;4.40;;;4.00;;
50126;SDS011;36024;47.974;16.398;2023-05-10T04:10:42;4.33;;;3.93;;
50126;SDS011;36024;47.974;16.398;2023-05-10T04:13:09;5.40;;;3.77;;
50126;SDS011;36024;47.974;16.398;2023-05-10T04:15:37;5.07;;;3.73;;
50126;SDS011;36024;47.974;16.398;2023-05-10T04:18:04;3.70;;;3.40;;
50126;SDS011;36024;47.974;16.398;2023-05-10T04:20:33;4.37;;;3.97;;
50126;SDS011;36024;47.974;16.398;2023-05-10T04:23:00;4.27;;;3.87;;
50126;SDS011;36024;47.974;16.398;2023-05-10T04:25:27;4.50;;;4.10;;
50126;SDS011;36024;47.974;16.398;2023-05-10T04:27:53;5.20;;;3.97;;
50126;SDS011;36024;47.974;16.398;2023-05-10T04:30:20;4.40;;;4.00;;
50126;SDS011;36024;47.974;16.398;2023-05-10T04:32:47;4.23;;;3.60;;
50126;SDS011;36024;47.974;16.398;2023-05-10T04:35:14;5.00;;;3.93;;
50126;SDS011;36024;47.974;16.398;2023-05-10T04:37:41;5.70;;;4.20;;
50126;SDS011;36024;47.974;16.398;2023-05-10T04:40:08;5.47;;;4.20;;
50126;SDS011;36024;47.974;16.398;2023-05-10T04:42:35;5.17;;;4.23;;
50126;SDS011;36024;47.974;16.398;2023-05-10T04:45:02;4.60;;;4.13;;
50126;SDS011;36024;47.974;16.398;2023-05-10T04:47:29;6.30;;;4.87;;
50126;SDS011;36024;47.974;16.398;2023-05-10T04:49:56;4.50;;;4.10;;
50126;SDS011;36024;47.974;16.398;2023-05-10T04:52:22;4.13;;;3.80;;
50126;SDS011;36024;47.974;16.398;2023-05-10T04:54:49;5.40;;;4.23;;
50126;SDS011;36024;47.974;16.398;2023-05-10T04:57:17;4.57;;;4.17;;
50126;SDS011;36024;47.974;16.398;2023-05-10T04:59:43;4.60;;;4.20;;
50126;SDS011;36024;47.974;16.398;2023-05-10T05:02:10;5.20;;;4.10;;
50126;SDS011;36024;47.974;16.398;2023-05-10T05:04:37;7.33;;;4.13;;
50126;SDS011;36024;47.974;16.398;2023-05-10T05:07:04;5.40;;;4.50;;
50126;SDS011;36024;47.974;16.398;2023-05-10T05:09:31;4.63;;;4.23;;
50126;SDS011;36024;47.974;16.398;2023-05-10T05:11:58;4.67;;;4.20;;
50126;SDS011;36024;47.974;16.398;2023-05-10T05:14:25;4.33;;;3.90;;
50126;SDS011;36024;47.974;16.398;2023-05-10T05:16:52;4.53;;;4.07;;
50126;SDS011;36024;47.974;16.398;2023-05-10T05:19:19;5.13;;;4.63;;
50126;SDS011;36024;47.974;16.398;2023-05-10T05:21:45;4.30;;;3.90;;
50126;SDS011;36024;47.974;16.398;2023-05-10T05:24:12;4.33;;;3.93;;
50126;SDS011;36024;47.974;16.398;2023-05-10T05:26:39;5.50;;;4.20;;
50126;SDS011;36024;47.974;16.398;2023-05-10T05:29:05;6.13;;;3.97;;
50126;SDS011;36024;47.974;16.398;2023-05-10T05:31:32;4.40;;;4.00;;
50126;SDS011;36024;47.974;16.398;2023-05-10T05:33:59;4.37;;;3.97;;
50126;SDS011;36024;47.974;16.398;2023-05-10T05:36:26;6.67;;;4.07;;
50126;SDS011;36024;47.974;16.398;2023-05-10T05:38:53;4.60;;;4.20;;
50126;SDS011;36024;47.974;16.398;2023-05-10T05:41:19;4.37;;;3.90;;
50126;SDS011;36024;47.974;16.398;2023-05-10T05:43:47;5.03;;;4.03;;
50126;SDS011;36024;47.974;16.398;2023-05-10T05:46:14;5.43;;;4.00;;
50126;SDS011;36024;47.974;16.398;2023-05-10T05:48:41;4.53;;;4.13;;
50126;SDS011;36024;47.974;16.398;2023-05-10T05:51:08;6.10;;;4.33;;
50126;SDS011;36024;47.974;16.398;2023-05-10T05:53:34;5.27;;;4.47;;
50126;SDS011;36024;47.974;16.398;2023-05-10T05:56:01;4.53;;;4.13;;
50126;SDS011;36024;47.974;16.398;2023-05-10T05:58:28;4.70;;;3.80;;
50126;SDS011;36024;47.974;16.398;2023-05-10T06:00:55;5.03;;;4.10;;
50126;SDS011;36024;47.974;16.398;2023-05-10T06:03:21;4.00;;;3.60;;
50126;SDS011;36024;47.974;16.398;2023-05-10T06:05:48;5.30;;;4.10;;
50126;SDS011;36024;47.974;16.398;2023-05-10T06:08:15;5.30;;;4.53;;
50126;SDS011;36024;47.974;16.398;2023-05-10T06:10:42;5.23;;;4.47;;
50126;SDS011;36024;47.974;16.398;2023-05-10T06:13:08;4.87;;;4.03;;
50126;SDS011;36024;47.974;16.398;2023-05-10T06:15:36;6.47;;;4.10;;
50126;SDS011;36024;47.974;16.398;2023-05-10T06:18:03;5.20;;;4.50;;
50126;SDS011;36024;47.974;16.398;2023-05-10T06:20:29;5.07;;;4.40;;
50126;SDS011;36024;47.974;16.398;2023-05-10T06:22:57;5.10;;;4.53;;
50126;SDS011;36024;47.974;16.398;2023-05-10T06:25:24;5.53;;;3.80;;
50126;SDS011;36024;47.974;16.398;2023-05-10T06:27:51;5.83;;;4.00;;
50126;SDS011;36024;47.974;16.398;2023-05-10T06:30:23;4.20;;;3.80;;
50126;SDS011;36024;47.974;16.398;2023-05-10T06:32:54;5.13;;;3.87;;
50126;SDS011;36024;47.974;16.398;2023-05-10T06:35:21;5.93;;;3.53;;
50126;SDS011;36024;47.974;16.398;2023-05-10T06:37:48;4.17;;;3.80;;
50126;SDS011;36024;47.974;16.398;2023-05-10T06:40:15;5.03;;;4.00;;
50126;SDS011;36024;47.974;16.398;2023-05-10T06:42:42;6.13;;;4.13;;
50126;SDS011;36024;47.974;16.398;2023-05-10T06:45:11;4.67;;;3.80;;
50126;SDS011;36024;47.974;16.398;2023-05-10T06:47:38;4.50;;;3.60;;
50126;SDS011;36024;47.974;16.398;2023-05-10T06:50:05;7.07;;;4.77;;
50126;SDS011;36024;47.974;16.398;2023-05-10T06:52:32;4.40;;;4.03;;
50126;SDS011;36024;47.974;16.398;2023-05-10T06:54:59;5.83;;;3.70;;
50126;SDS011;36024;47.974;16.398;2023-05-10T06:57:26;4.20;;;3.57;;
50126;SDS011;36024;47.974;16.398;2023-05-10T06:59:57;4.90;;;4.10;;
50126;SDS011;36024;47.974;16.398;2023-05-10T07:02:25;4.20;;;3.80;;
50126;SDS011;36024;47.974;16.398;2023-05-10T07:04:52;5.53;;;3.90;;
50126;SDS011;36024;47.974;16.398;2023-05-10T07:07:19;5.93;;;3.60;;
50126;SDS011;36024;47.974;16.398;2023-05-10T07:09:45;6.00;;;3.83;;
50126;SDS011;36024;47.974;16.398;2023-05-10T07:12:12;7.77;;;4.23;;
50126;SDS011;36024;47.974;16.398;2023-05-10T07:14:40;4.63;;;3.67;;
50126;SDS011;36024;47.974;16.398;2023-05-10T07:17:07;5.67;;;3.60;;
50126;SDS011;36024;47.974;16.398;2023-05-10T07:19:34;4.13;;;3.77;;
50126;SDS011;36024;47.974;16.398;2023-05-10T07:22:04;5.63;;;3.63;;
50126;SDS011;36024;47.974;16.398;2023-05-10T07:24:31;4.30;;;3.70;;
50126;SDS011;36024;47.974;16.398;2023-05-10T07:26:58;6.20;;;3.23;;
50126;SDS011;36024;47.974;16.398;2023-05-10T07:29:25;6.83;;;4.00;;
50126;SDS011;36024;47.974;16.398;2023-05-10T07:31:52;4.57;;;3.50;;
50126;SDS011;36024;47.974;16.398;2023-05-10T07:34:20;3.97;;;3.60;;
50126;SDS011;36024;47.974;16.398;2023-05-10T07:36:47;5.53;;;3.80;;
50126;SDS011;36024;47.974;16.398;2023-05-10T07:39:14;3.90;;;3.60;;
50126;SDS011;36024;47.974;16.398;2023-05-10T07:41:49;4.00;;;3.70;;
50126;SDS011;36024;47.974;16.398;2023-05-10T07:44:16;4.53;;;3.83;;
50126;SDS011;36024;47.974;16.398;2023-05-10T07:46:45;3.93;;;3.47;;
50126;SDS011;36024;47.974;16.398;2023-05-10T07:49:13;4.50;;;4.10;;
50126;SDS011;36024;47.974;16.398;2023-05-10T07:51:40;4.60;;;3.73;;
50126;SDS011;36024;47.974;16.398;2023-05-10T07:54:06;4.00;;;3.70;;
50126;SDS011;36024;47.974;16.398;2023-05-10T07:56:34;6.30;;;3.90;;
50126;SDS011;36024;47.974;16.398;2023-05-10T07:59:02;4.17;;;3.57;;
50126;SDS011;36024;47.974;16.398;2023-05-10T08:01:30;5.63;;;3.83;;
50126;SDS011;36024;47.974;16.398;2023-05-10T08:03:58;4.40;;;3.50;;
50126;SDS011;36024;47.974;16.398;2023-05-10T08:06:26;5.17;;;3.70;;
50126;SDS011;36024;47.974;16.398;2023-05-10T08:08:54;3.87;;;3.57;;
50126;SDS011;36024;47.974;16.398;2023-05-10T08:11:21;4.00;;;3.60;;
50126;SDS011;36024;47.974;16.398;2023-05-10T08:13:49;5.53;;;4.60;;
50126;SDS011;36024;47.974;16.398;2023-05-10T08:16:16;6.57;;;4.00;;
50126;SDS011;36024;47.974;16.398;2023-05-10T08:18:44;5.73;;;4.53;;
50126;SDS011;36024;47.974;16.398;2023-05-10T08:21:12;4.87;;;3.97;;
50126;SDS011;36024;47.974;16.398;2023-05-10T08:23:39;6.63;;;3.83;;
50126;SDS011;36024;47.974;16.398;2023-05-10T08:26:07;4.00;;;3.70;;
50126;SDS011;36024;47.974;16.398;2023-05-10T08:28:33;6.90;;;4.07;;
50126;SDS011;36024;47.974;16.398;2023-05-10T08:31:00;5.07;;;3.90;;
50126;SDS011;36024;47.974;16.398;2023-05-10T08:33:27;6.13;;;4.00;;
50126;SDS011;36024;47.974;16.398;2023-05-10T08:35:53;8.33;;;3.73;;
50126;SDS011;36024;47.974;16.398;2023-05-10T08:38:20;4.50;;;3.50;;
50126;SDS011;36024;47.974;16.398;2023-05-10T08:40:47;5.73;;;3.33;;
50126;SDS011;36024;47.974;16.398;2023-05-10T08:43:17;4.13;;;3.03;;
50126;SDS011;36024;47.974;16.398;2023-05-10T08:45:44;3.57;;;3.23;;
50126;SDS011;36024;47.974;16.398;2023-05-10T08:48:14;3.23;;;2.93;;
50126;SDS011;36024;47.974;16.398;2023-05-10T08:50:41;4.23;;;3.30;;
50126;SDS011;36024;47.974;16.398;2023-05-10T08:53:10;3.80;;;3.33;;
50126;SDS011;36024;47.974;16.398;2023-05-10T08:55:38;3.83;;;3.20;;
50126;SDS011;36024;47.974;16.398;2023-05-10T08:58:06;3.83;;;2.60;;
50126;SDS011;36024;47.974;16.398;2023-05-10T09:00:33;3.00;;;2.70;;
50126;SDS011;36024;47.974;16.398;2023-05-10T09:03:01;4.20;;;2.90;;
50126;SDS011;36024;47.974;16.398;2023-05-10T09:05:29;4.00;;;2.20;;
50126;SDS011;36024;47.974;16.398;2023-05-10T09:07:56;2.53;;;2.00;;
50126;SDS011;36024;47.974;16.398;2023-05-10T09:10:22;2.07;;;1.80;;
50126;SDS011;36024;47.974;16.398;2023-05-10T09:12:52;3.00;;;2.00;;
50126;SDS011;36024;47.974;16.398;2023-05-10T09:15:19;3.67;;;2.33;;
50126;SDS011;36024;47.974;16.398;2023-05-10T09:17:46;4.73;;;2.30;;
50126;SDS011;36024;47.974;16.398;2023-05-10T09:20:13;3.13;;;2.03;;
50126;SDS011;36024;47.974;16.398;2023-05-10T09:22:40;2.67;;;1.90;;
50126;SDS011;36024;47.974;16.398;2023-05-10T09:25:08;2.10;;;1.70;;
50126;SDS011;36024;47.974;16.398;2023-05-10T09:27:38;3.13;;;1.70;;
50126;SDS011;36024;47.974;16.398;2023-05-10T09:30:05;1.73;;;1.63;;
50126;SDS011;36024;47.974;16.398;2023-05-10T09:32:37;1.50;;;1.40;;
50126;SDS011;36024;47.974;16.398;2023-05-10T09:35:11;1.87;;;1.50;;
50126;SDS011;36024;47.974;16.398;2023-05-10T09:37:39;2.80;;;1.23;;
50126;SDS011;36024;47.974;16.398;2023-05-10T09:40:08;2.90;;;1.40;;
50126;SDS011;36024;47.974;16.398;2023-05-10T09:42:38;1.33;;;1.23;;
50126;SDS011;36024;47.974;16.398;2023-05-10T09:45:05;3.50;;;1.40;;
50126;SDS011;36024;47.974;16.398;2023-05-10T09:47:36;1.00;;;1.00;;
50126;SDS011;36024;47.974;16.398;2023-05-10T09:50:03;2.10;;;1.00;;
50126;SDS011;36024;47.974;16.398;2023-05-10T09:52:30;1.20;;;1.10;;
50126;SDS011;36024;47.974;16.398;2023-05-10T09:54:57;1.53;;;1.33;;
50126;SDS011;36024;47.974;16.398;2023-05-10T09:57:24;0.90;;;0.83;;
50126;SDS011;36024;47.974;16.398;2023-05-10T09:59:52;3.27;;;1.30;;
50126;SDS011;36024;47.974;16.398;2023-05-10T10:02:20;1.47;;;1.20;;
50126;SDS011;36024;47.974;16.398;2023-05-10T10:04:48;0.90;;;0.90;;
50126;SDS011;36024;47.974;16.398;2023-05-10T10:07:15;1.23;;;1.13;;
50126;SDS011;36024;47.974;16.398;2023-05-10T10:09:48;1.20;;;1.10;;
50126;SDS011;36024;47.974;16.398;2023-05-10T10:12:16;1.80;;;1.43;;
50126;SDS011;36024;47.974;16.398;2023-05-10T10:14:43;2.40;;;1.57;;
50126;SDS011;36024;47.974;16.398;2023-05-10T10:17:11;1.43;;;1.23;;
50126;SDS011;36024;47.974;16.398;2023-05-10T10:19:38;2.30;;;1.50;;
50126;SDS011;36024;47.974;16.398;2023-05-10T10:22:05;3.07;;;1.30;;
50126;SDS011;36024;47.974;16.398;2023-05-10T10:24:32;2.03;;;1.37;;
50126;SDS011;36024;47.974;16.398;2023-05-10T10:30:21;1.90;;;1.60;;
50126;SDS011;36024;47.974;16.398;2023-05-10T10:32:55;2.43;;;1.40;;
50126;SDS011;36024;47.974;16.398;2023-05-10T10:35:36;3.40;;;1.80;;
50126;SDS011;36024;47.974;16.398;2023-05-10T10:38:04;1.70;;;1.60;;
50126;SDS011;36024;47.974;16.398;2023-05-10T10:40:31;2.03;;;1.63;;
50126;SDS011;36024;47.974;16.398;2023-05-10T10:46:11;2.73;;;2.00;;
50126;SDS011;36024;47.974;16.398;2023-05-10T10:48:50;1.80;;;1.70;;
50126;SDS011;36024;47.974;16.398;2023-05-10T10:51:37;3.30;;;2.90;;
50126;SDS011;36024;47.974;16.398;2023-05-10T10:54:08;7.53;;;4.95;;
50126;SDS011;36024;47.974;16.398;2023-05-10T10:56:38;2.00;;;1.70;;
50126;SDS011;36024;47.974;16.398;2023-05-10T10:59:05;2.42;;;1.70;;
50126;SDS011;36024;47.974;16.398;2023-05-10T11:01:35;2.93;;;1.90;;
50126;SDS011;36024;47.974;16.398;2023-05-10T11:06:32;2.07;;;1.70;;
50126;SDS011;36024;47.974;16.398;2023-05-10T11:09:10;2.03;;;1.40;;
50126;SDS011;36024;47.974;16.398;2023-05-10T11:11:53;2.20;;;1.80;;
50126;SDS011;36024;47.974;16.398;2023-05-10T11:14:24;1.83;;;1.60;;
50126;SDS011;36024;47.974;16.398;2023-05-10T11:16:51;1.60;;;1.50;;
50126;SDS011;36024;47.974;16.398;2023-05-10T11:19:18;1.80;;;1.60;;
50126;SDS011;36024;47.974;16.398;2023-05-10T11:24:55;2.38;;;1.60;;
50126;SDS011;36024;47.974;16.398;2023-05-10T11:27:22;1.75;;;1.63;;
50126;SDS011;36024;47.974;16.398;2023-05-10T11:29:52;1.60;;;1.50;;
50126;SDS011;36024;47.974;16.398;2023-05-10T11:32:19;1.33;;;1.23;;
50126;SDS011;36024;47.974;16.398;2023-05-10T11:34:46;2.20;;;1.40;;
50126;SDS011;36024;47.974;16.398;2023-05-10T11:37:14;3.75;;;1.35;;
50126;SDS011;36024;47.974;16.398;2023-05-10T11:39:45;3.67;;;1.23;;
50126;SDS011;36024;47.974;16.398;2023-05-10T11:42:12;1.70;;;1.42;;
50126;SDS011;36024;47.974;16.398;2023-05-10T11:44:39;1.73;;;1.25;;
50126;SDS011;36024;47.974;16.398;2023-05-10T11:47:07;2.13;;;1.30;;
50126;SDS011;36024;47.974;16.398;2023-05-10T11:49:33;1.77;;;1.40;;
50126;SDS011;36024;47.974;16.398;2023-05-10T11:52:06;1.40;;;1.30;;
50126;SDS011;36024;47.974;16.398;2023-05-10T11:54:34;1.20;;;1.10;;
50126;SDS011;36024;47.974;16.398;2023-05-10T11:57:03;2.78;;;1.40;;
50126;SDS011;36024;47.974;16.398;2023-05-10T11:59:30;1.38;;;1.25;;
50126;SDS011;36024;47.974;16.398;2023-05-10T12:01:57;1.37;;;1.23;;
50126;SDS011;36024;47.974;16.398;2023-05-10T12:04:23;1.57;;;1.27;;
50126;SDS011;36024;47.974;16.398;2023-05-10T12:06:51;3.38;;;1.20;;
50126;SDS011;36024;47.974;16.398;2023-05-10T12:09:18;2.20;;;1.20;;
50126;SDS011;36024;47.974;16.398;2023-05-10T12:11:57;1.83;;;1.23;;
50126;SDS011;36024;47.974;16.398;2023-05-10T12:14:23;1.20;;;1.00;;
50126;SDS011;36024;47.974;16.398;2023-05-10T12:16:50;1.33;;;1.23;;
50126;SDS011;36024;47.974;16.398;2023-05-10T12:19:20;1.75;;;1.20;;
50126;SDS011;36024;47.974;16.398;2023-05-10T12:21:47;1.33;;;1.23;;
50126;SDS011;36024;47.974;16.398;2023-05-10T12:24:14;1.13;;;1.10;;
50126;SDS011;36024;47.974;16.398;2023-05-10T12:26:45;2.83;;;1.23;;
50126;SDS011;36024;47.974;16.398;2023-05-10T12:29:12;3.08;;;1.63;;
50126;SDS011;36024;47.974;16.398;2023-05-10T12:31:52;1.37;;;1.20;;
50126;SDS011;36024;47.974;16.398;2023-05-10T12:34:25;1.20;;;1.20;;
50126;SDS011;36024;47.974;16.398;2023-05-10T12:36:59;2.03;;;1.40;;
50126;SDS011;36024;47.974;16.398;2023-05-10T12:39:36;2.65;;;1.40;;
50126;SDS011;36024;47.974;16.398;2023-05-10T12:42:05;1.20;;;1.10;;
50126;SDS011;36024;47.974;16.398;2023-05-10T12:44:32;2.35;;;1.35;;
50126;SDS011;36024;47.974;16.398;2023-05-10T12:46:59;2.42;;;1.70;;
50126;SDS011;36024;47.974;16.398;2023-05-10T12:49:26;1.73;;;1.35;;
50126;SDS011;36024;47.974;16.398;2023-05-10T12:51:52;2.80;;;1.50;;
50126;SDS011;36024;47.974;16.398;2023-05-10T12:54:19;3.60;;;1.42;;
50126;SDS011;36024;47.974;16.398;2023-05-10T12:56:46;1.40;;;1.30;;
50126;SDS011;36024;47.974;16.398;2023-05-10T12:59:13;2.38;;;1.20;;
50126;SDS011;36024;47.974;16.398;2023-05-10T13:01:39;1.30;;;1.20;;
50126;SDS011;36024;47.974;16.398;2023-05-10T13:04:06;10.98;;;1.90;;
50126;SDS011;36024;47.974;16.398;2023-05-10T13:06:33;1.52;;;1.42;;
50126;SDS011;36024;47.974;16.398;2023-05-10T13:09:00;1.70;;;1.60;;
50126;SDS011;36024;47.974;16.398;2023-05-10T13:11:27;1.60;;;1.50;;
50126;SDS011;36024;47.974;16.398;2023-05-10T13:13:53;3.67;;;1.67;;
50126;SDS011;36024;47.974;16.398;2023-05-10T13:16:20;2.60;;;1.90;;
50126;SDS011;36024;47.974;16.398;2023-05-10T13:18:47;4.95;;;1.40;;
50126;SDS011;36024;47.974;16.398;2023-05-10T13:21:14;2.63;;;1.50;;
50126;SDS011;36024;47.974;16.398;2023-05-10T13:23:41;2.85;;;1.80;;
50126;SDS011;36024;47.974;16.398;2023-05-10T13:26:07;1.63;;;1.52;;
50126;SDS011;36024;47.974;16.398;2023-05-10T13:28:34;2.80;;;2.60;;
50126;SDS011;36024;47.974;16.398;2023-05-10T13:31:01;1.77;;;1.67;;
50126;SDS011;36024;47.974;16.398;2023-05-10T13:33:28;2.05;;;1.63;;
50126;SDS011;36024;47.974;16.398;2023-05-10T13:35:54;1.60;;;1.50;;
50126;SDS011;36024;47.974;16.398;2023-05-10T13:38:21;3.88;;;2.22;;
50126;SDS011;36024;47.974;16.398;2023-05-10T13:40:48;2.83;;;2.00;;
50126;SDS011;36024;47.974;16.398;2023-05-10T13:43:18;2.80;;;2.47;;
50126;SDS011;36024;47.974;16.398;2023-05-10T13:45:45;2.90;;;2.60;;
50126;SDS011;36024;47.974;16.398;2023-05-10T13:48:12;2.80;;;2.10;;
50126;SDS011;36024;47.974;16.398;2023-05-10T13:50:39;2.97;;;2.78;;
50126;SDS011;36024;47.974;16.398;2023-05-10T13:53:06;2.95;;;2.75;;
50126;SDS011;36024;47.974;16.398;2023-05-10T13:55:33;2.35;;;1.92;;
50126;SDS011;36024;47.974;16.398;2023-05-10T13:58:00;2.55;;;2.33;;
50126;SDS011;36024;47.974;16.398;2023-05-10T14:00:26;2.20;;;1.70;;
50126;SDS011;36024;47.974;16.398;2023-05-10T14:02:53;4.03;;;3.30;;
50126;SDS011;36024;47.974;16.398;2023-05-10T14:05:20;1.67;;;1.58;;
50126;SDS011;36024;47.974;16.398;2023-05-10T14:07:51;3.17;;;1.30;;
50126;SDS011;36024;47.974;16.398;2023-05-10T14:10:17;2.45;;;1.90;;
50126;SDS011;36024;47.974;16.398;2023-05-10T14:12:44;4.07;;;3.72;;
50126;SDS011;36024;47.974;16.398;2023-05-10T14:15:11;3.05;;;2.85;;
50126;SDS011;36024;47.974;16.398;2023-05-10T14:17:38;2.53;;;2.33;;
50126;SDS011;36024;47.974;16.398;2023-05-10T14:20:05;1.98;;;1.65;;
50126;SDS011;36024;47.974;16.398;2023-05-10T14:22:32;3.92;;;3.53;;
50126;SDS011;36024;47.974;16.398;2023-05-10T14:24:59;3.05;;;2.65;;
50126;SDS011;36024;47.974;16.398;2023-05-10T14:27:26;1.67;;;1.40;;
50126;SDS011;36024;47.974;16.398;2023-05-10T14:29:53;3.55;;;3.25;;
50126;SDS011;36024;47.974;16.398;2023-05-10T14:32:20;3.58;;;3.28;;
50126;SDS011;36024;47.974;16.398;2023-05-10T14:34:47;2.13;;;2.03;;
50126;SDS011;36024;47.974;16.398;2023-05-10T14:37:13;2.33;;;1.40;;
50126;SDS011;36024;47.974;16.398;2023-05-10T14:39:41;2.47;;;2.28;;
50126;SDS011;36024;47.974;16.398;2023-05-10T14:42:09;4.32;;;1.58;;
50126;SDS011;36024;47.974;16.398;2023-05-10T14:44:35;3.75;;;3.42;;
50126;SDS011;36024;47.974;16.398;2023-05-10T14:47:02;3.88;;;3.58;;
50126;SDS011;36024;47.974;16.398;2023-05-10T14:49:29;5.65;;;1.90;;
50126;SDS011;36024;47.974;16.398;2023-05-10T14:51:55;3.00;;;1.20;;
50126;SDS011;36024;47.974;16.398;2023-05-10T14:54:22;2.40;;;1.70;;
50126;SDS011;36024;47.974;16.398;2023-05-10T14:56:49;3.03;;;1.60;;
50126;SDS011;36024;47.974;16.398;2023-05-10T14:59:16;1.35;;;1.20;;
50126;SDS011;36024;47.974;16.398;2023-05-10T15:01:43;2.08;;;1.50;;
50126;SDS011;36024;47.974;16.398;2023-05-10T15:04:10;2.95;;;1.52;;
50126;SDS011;36024;47.974;16.398;2023-05-10T15:06:37;1.52;;;1.20;;